Terminal Aerodrome Forecast
Issued by NWS Northern Indiana

Home | Current Version | Previous Version | Text Only | Print | Product List | Glossary On
Versions: 1 2 3 4 5 6 7 8 9 10 11 12 13 14 15 16 17
000
FTUS43 KIWX 302320
TAFFWA
TAF
KFWA 302320Z 3100/3124 09014G20KT 4SM SHRA VCTS SCT007 OVC050CB
      TEMPO 3100/3102 3SM -TSRA BKN009 OVC020CB
     FM310300 09012KT 4SM -SHRA SCT007 OVC020
     FM310500 10008KT 3SM BR VCSH OVC015
     FM310900 20005KT 1 1/2SM BR VCSH OVC004
     FM311500 27006KT 4SM BR VCSH OVC006
     FM311800 32010KT P6SM OVC008=

USA.gov is the U.S. government's official web portal to all federal, state and local government web resources and services.